Time;durP1;ratioP1;P1;durP2;ratioP2;P2;SDS_P1;SDS_P2;PMS_P1;PMS_P2;Temp;Humidity;BMP_temperature;BMP_pressure;BME280_temperature;BME280_humidity;BME280_pressure;Samples;Min_cycle;Max_cycle;Signal;HPM_P1;HPM_P2
2021/03/27 00:00:08;;;;;;;0.70;0.60;;;9.40;99.90;;;9.93;100.00;147155.28;5034703;28;20414;-74
2021/03/27 00:02:46;;;;;;;0.70;0.60;;;9.20;99.90;;;9.80;100.00;147121.06;5033763;28;20519;-74
2021/03/27 00:05:19;;;;;;;0.70;0.57;;;9.10;99.90;;;9.64;100.00;147082.94;5034654;28;20456;-73
2021/03/27 00:08:07;;;;;;;0.70;0.60;;;8.90;99.90;;;9.49;100.00;147044.88;5032974;28;20806;-74
2021/03/27 00:10:42;;;;;;;0.70;0.60;;;8.70;99.90;;;9.17;100.00;146966.25;5032782;28;20432;-74
2021/03/27 00:13:26;;;;;;;0.70;0.50;;;8.50;99.90;;;8.98;100.00;146918.03;5032179;28;20816;-74
2021/03/27 00:16:17;;;;;;;0.70;0.60;;;8.30;99.90;;;8.68;100.00;146844.47;5034595;28;20421;-75
2021/03/27 00:18:58;;;;;;;0.70;0.50;;;8.10;99.90;;;8.63;100.00;146831.81;5033996;28;20800;-74
2021/03/27 00:21:33;;;;;;;0.70;0.60;;;7.90;99.90;;;8.37;100.00;146765.88;5032296;28;20467;-76
2021/03/27 00:24:07;;;;;;;0.70;0.50;;;7.70;99.90;;;8.24;100.00;146735.41;5034463;28;20475;-75
2021/03/27 00:26:41;;;;;;;0.70;0.60;;;7.60;99.90;;;8.34;100.00;146758.25;5034034;28;20892;-74
2021/03/27 00:29:20;;;;;;;0.70;0.60;;;7.60;99.90;;;8.20;100.00;146725.28;5032264;28;20519;-75
2021/03/27 00:32:06;;;;;;;0.70;0.50;;;7.50;99.90;;;8.29;100.00;146408.72;5033041;28;20955;-75
2021/03/27 00:34:42;;;;;;;0.70;0.60;;;7.50;99.90;;;8.24;100.00;145389.81;5033015;28;20473;-75
2021/03/27 00:37:16;;;;;;;0.70;0.60;;;7.40;99.90;;;8.23;100.00;144382.63;5033316;28;20847;-75
2021/03/27 00:39:50;;;;;;;0.70;0.60;;;7.50;99.90;;;8.30;100.00;143057.91;5032663;28;20787;-75
2021/03/27 00:42:21;;;;;;;0.80;0.80;;;7.50;99.90;;;8.21;100.00;141360.41;5032602;28;20813;-75
2021/03/27 00:44:52;;;;;;;0.70;0.50;;;7.50;99.90;;;8.05;100.00;139313.84;5017218;28;20473;-75
2021/03/27 00:47:32;;;;;;;0.70;0.50;;;7.40;99.90;;;8.08;100.00;136978.88;5014127;28;20506;-74
2021/03/27 00:50:09;;;;;;;0.70;0.60;;;7.30;99.90;;;7.90;100.00;133928.09;5044434;28;20451;-75
2021/03/27 00:52:41;;;;;;;0.70;0.60;;;7.20;99.90;;;7.82;100.00;132239.69;5032987;28;20928;-75
2021/03/27 00:55:15;;;;;;;0.70;0.60;;;7.20;99.90;;;7.82;100.00;129569.50;5065712;28;20497;-75
2021/03/27 00:57:53;;;;;;;0.70;0.60;;;7.10;99.90;;;7.86;100.00;127577.03;5031610;28;20799;-75
2021/03/27 01:00:33;;;;;;;0.70;0.60;;;7.00;99.90;;;7.68;100.00;124207.22;5030844;28;20438;-76
2021/03/27 01:03:31;;;;;;;0.70;0.60;;;7.00;99.90;;;7.57;100.00;123517.63;5032745;28;20919;-76
2021/03/27 01:06:10;;;;;;;0.70;0.60;;;6.90;99.90;;;7.52;100.00;121510.03;5033561;28;20269;-75
2021/03/27 01:09:09;;;;;;;0.70;0.50;;;6.80;99.90;;;7.48;100.00;118177.16;5004127;28;20208;-75
2021/03/27 01:12:02;;;;;;;0.70;0.60;;;6.70;99.90;;;7.39;100.00;114836.88;5019720;28;20284;-75
2021/03/27 01:14:39;;;;;;;0.70;0.60;;;6.70;99.90;;;7.38;100.00;113506.09;5027590;28;20190;-76
2021/03/27 01:17:11;;;;;;;0.70;0.60;;;6.60;99.90;;;7.28;100.00;112159.28;5032243;28;20211;-76
2021/03/27 01:19:44;;;;;;;0.70;0.60;;;6.60;99.90;;;7.30;100.00;111168.19;5048741;28;20241;-76
2021/03/27 01:22:15;;;;;;;0.70;0.60;;;6.50;99.90;;;7.29;100.00;108845.63;5031833;28;20201;-76
2021/03/27 01:24:43;;;;;;;0.70;0.60;;;6.50;99.90;;;7.19;100.00;106841.13;5032808;28;20469;-75
2021/03/27 01:27:23;;;;;;;0.70;0.60;;;6.50;99.90;;;7.18;100.00;105514.88;5033037;28;20461;-75
2021/03/27 01:30:00;;;;;;;0.70;0.50;;;6.40;99.90;;;7.12;100.00;103187.66;5032703;28;20566;-73
2021/03/27 01:32:41;;;;;;;0.70;0.60;;;6.40;99.90;;;7.10;100.00;102522.59;5030193;28;21026;-76
2021/03/27 01:35:18;;;;;;;0.80;0.70;;;6.30;99.90;;;7.08;100.00;103511.25;5033211;28;20178;-76
2021/03/27 01:37:58;;;;;;;0.70;0.60;;;6.30;99.90;;;6.98;100.00;104486.50;5047629;28;20616;-75
2021/03/27 01:40:32;;;;;;;0.70;0.60;;;6.30;99.90;;;7.04;100.00;103834.84;5023131;28;20229;-73
2021/03/27 01:43:17;;;;;;;0.70;0.60;;;6.20;99.90;;;7.07;100.00;101855.97;5032262;28;20190;-76
2021/03/27 01:46:49;;;;;;;0.70;0.60;;;6.20;99.90;;;6.94;100.00;102163.50;5001323;28;20663;-76
2021/03/27 01:49:42;;;;;;;0.70;0.60;;;6.20;99.90;;;6.85;100.00;102808.63;4952778;28;20217;-75
2021/03/27 01:52:47;;;;;;;0.70;0.60;;;6.20;99.90;;;6.86;100.00;104463.84;5003446;28;20282;-75
2021/03/27 01:55:32;;;;;;;0.70;0.60;;;6.10;99.90;;;6.91;100.00;104142.13;5041895;28;20249;-76
2021/03/27 01:58:11;;;;;;;0.70;0.60;;;6.10;99.90;;;7.02;100.00;104162.94;5033133;28;20178;-76
2021/03/27 02:00:45;;;;;;;0.70;0.60;;;6.10;99.90;;;7.07;100.00;102847.97;5029898;28;20182;-76
2021/03/27 02:03:21;;;;;;;0.70;0.60;;;6.10;99.90;;;6.89;100.00;100502.25;5032009;28;20214;-75
2021/03/27 02:05:57;;;;;;;0.70;0.60;;;6.10;99.90;;;6.87;100.00;99838.03;5032263;28;20186;-76
2021/03/27 02:08:48;;;;;;;0.70;0.60;;;6.10;99.90;;;6.83;100.00;98840.31;5030881;28;20202;-75
2021/03/27 02:11:29;;;;;;;0.70;0.60;;;6.00;99.90;;;6.76;100.00;95859.69;5028719;28;20226;-76
2021/03/27 02:14:04;;;;;;;0.70;0.60;;;6.00;99.90;;;6.83;100.00;95209.94;5036012;28;20268;-76
2021/03/27 02:16:39;;;;;;;0.70;0.60;;;6.00;99.90;;;6.64;100.00;94850.34;5034018;28;20240;-75
2021/03/27 02:19:49;;;;;;;0.70;0.60;;;5.90;99.90;;;6.77;100.00;93552.03;5034903;28;20210;-76
2021/03/27 02:22:25;;;;;;;0.70;0.60;;;6.00;99.90;;;6.73;100.00;92227.94;5018374;28;20190;-76
2021/03/27 02:25:45;;;;;;;0.70;0.60;;;6.00;99.90;;;6.64;100.00;89907.13;5036389;28;20213;-76
2021/03/27 02:28:36;;;;;;;0.70;0.60;;;5.90;99.90;;;6.58;100.00;89568.50;5034912;28;20286;-76
2021/03/27 02:31:12;;;;;;;0.70;0.60;;;5.90;99.90;;;6.71;100.00;88272.03;5050796;28;20290;-74
2021/03/27 02:33:48;;;;;;;0.70;0.60;;;5.90;99.90;;;6.72;100.00;86957.97;5048393;28;20225;-76
2021/03/27 02:36:31;;;;;;;0.70;0.60;;;5.90;99.90;;;6.75;100.00;86303.78;5016738;28;20183;-75
2021/03/27 02:39:18;;;;;;;0.70;0.60;;;6.00;99.90;;;6.72;100.00;86628.22;5016214;28;20175;-76
2021/03/27 02:42:05;;;;;;;0.70;0.60;;;5.90;99.90;;;6.72;100.00;87945.19;5052866;28;20189;-76
2021/03/27 02:44:38;;;;;;;0.70;0.60;;;5.90;99.90;;;6.72;100.00;87616.09;5031870;28;20214;-76
2021/03/27 02:47:35;;;;;;;0.70;0.60;;;6.00;99.90;;;6.70;100.00;87613.03;5052300;28;20199;-76
2021/03/27 02:50:31;;;;;;;0.70;0.60;;;5.90;99.90;;;6.68;100.00;86293.97;5016068;28;20208;-76
2021/03/27 02:53:10;;;;;;;0.70;0.60;;;6.00;99.90;;;6.69;100.00;87939.81;5031337;28;20198;-76
2021/03/27 02:56:09;;;;;;;0.70;0.50;;;6.00;99.90;;;6.64;100.00;87274.06;5067031;28;20205;-76
2021/03/27 02:58:51;;;;;;;0.70;0.60;;;6.00;99.90;;;6.73;100.00;84985.13;5034565;28;20198;-75
2021/03/27 03:01:27;;;;;;;0.70;0.60;;;6.00;99.90;;;6.74;100.00;84329.75;5032590;28;20195;-76
2021/03/27 03:04:07;;;;;;;0.70;0.60;;;6.00;99.90;;;6.62;100.00;83326.03;5034052;28;20214;-76
2021/03/27 03:06:46;;;;;;;0.70;0.60;;;5.90;99.90;;;6.54;100.00;82657.28;5017352;28;20548;-76
2021/03/27 03:09:22;;;;;;;0.70;0.60;;;5.90;99.90;;;6.51;100.00;82981.47;5035274;28;20190;-75
2021/03/27 03:12:12;;;;;;;0.70;0.60;;;5.90;99.90;;;6.56;100.00;83317.31;5034309;28;20186;-76
2021/03/27 03:14:52;;;;;;;0.70;0.60;;;5.90;99.90;;;6.51;100.00;83638.59;5050850;28;20209;-76
2021/03/27 03:17:29;;;;;;;0.70;0.60;;;5.90;99.90;;;6.65;100.00;82344.63;5033067;28;20186;-76
2021/03/27 03:20:21;;;;;;;0.70;0.60;;;5.90;99.90;;;6.51;100.00;82653.66;5067075;28;20312;-76
2021/03/27 03:22:57;;;;;;;0.70;0.60;;;5.90;99.90;;;6.57;100.00;81676.19;5028122;28;20288;-75
2021/03/27 03:25:30;;;;;;;0.70;0.60;;;6.00;99.90;;;6.70;100.00;81365.56;5035206;28;20217;-77
2021/03/27 03:28:24;;;;;;;0.70;0.60;;;6.00;99.90;;;6.77;100.00;80390.84;5034240;28;20647;-76
2021/03/27 03:31:13;;;;;;;0.70;0.60;;;6.10;99.90;;;6.84;100.00;78757.38;5033532;28;20188;-76
2021/03/27 03:34:06;;;;;;;0.80;0.80;;;6.10;99.90;;;6.81;100.00;78753.91;5035185;28;20210;-76
2021/03/27 03:36:49;;;;;;;0.70;0.60;;;6.10;99.90;;;6.78;100.00;80063.81;5049653;28;20186;-76
2021/03/27 03:39:41;;;;;;;0.70;0.60;;;6.00;99.90;;;6.78;100.00;80063.13;5033749;28;20209;-76
2021/03/27 03:42:39;;;;;;;0.70;0.60;;;6.10;99.90;;;6.83;100.00;79412.66;5053511;28;20197;-76
2021/03/27 03:45:13;;;;;;;0.70;0.60;;;6.10;99.90;;;6.81;100.00;79409.88;5033804;28;20629;-77
2021/03/27 03:47:48;;;;;;;0.80;0.70;;;6.10;99.90;;;6.83;100.00;78099.47;5026167;28;20579;-76
2021/03/27 03:50:41;;;;;;;0.70;0.60;;;6.20;99.90;;;6.99;100.00;78449.69;5032658;28;20277;-74
2021/03/27 03:53:37;;;;;;;0.70;0.60;;;6.20;99.90;;;6.93;100.00;76800.28;5031775;28;20268;-75
2021/03/27 03:56:15;;;;;;;0.70;0.60;;;6.20;99.90;;;6.97;100.00;76149.34;5033121;28;20191;-75
2021/03/27 03:59:19;;;;;;;0.70;0.60;;;6.20;99.90;;;6.85;100.00;75477.25;5033834;28;20654;-74
2021/03/27 04:01:53;;;;;;;0.70;0.50;;;6.20;99.90;;;6.91;100.00;76141.34;5033180;28;20204;-77
2021/03/27 04:04:26;;;;;;;0.70;0.60;;;6.20;99.90;;;6.96;100.00;75163.81;5066184;28;20753;-75
2021/03/27 04:07:00;;;;;;;0.70;0.60;;;6.30;99.90;;;6.98;100.00;73527.31;5033410;28;20194;-75
2021/03/27 04:09:34;;;;;;;0.70;0.60;;;6.30;99.90;;;6.99;100.00;73200.09;5034904;28;20178;-76
2021/03/27 04:12:14;;;;;;;0.70;0.60;;;6.30;99.90;;;7.07;100.00;71570.69;5034305;28;20182;-75
2021/03/27 04:15:22;;;;;;;0.70;0.60;;;6.40;99.90;;;6.99;100.00;69268.16;5032698;28;20213;-76
2021/03/27 04:18:03;;;;;;;0.70;0.60;;;6.30;99.90;;;6.94;100.00;71227.31;5023680;28;20221;-75
2021/03/27 04:20:48;;;;;;;0.70;0.60;;;6.20;99.90;;;6.90;100.00;72533.63;5029887;28;20570;-76
2021/03/27 04:23:24;;;;;;;0.70;0.60;;;6.10;99.90;;;6.75;100.00;72186.88;5033715;28;20190;-75
2021/03/27 04:26:19;;;;;;;0.70;0.57;;;6.10;99.90;;;6.69;100.00;73162.81;5032772;28;20673;-75
2021/03/27 04:29:03;;;;;;;0.70;0.60;;;6.10;99.90;;;6.68;100.00;73489.22;5013468;28;20175;-75
2021/03/27 04:31:41;;;;;;;0.70;0.60;;;6.00;99.90;;;6.49;100.00;74120.63;5019673;28;20199;-76
2021/03/27 04:34:12;;;;;;;0.70;0.60;;;5.90;99.90;;;6.46;100.00;74443.75;5026133;28;20305;-75
2021/03/27 04:36:47;;;;;;;0.70;0.60;;;5.90;99.90;;;6.40;100.00;75419.00;5033310;28;20236;-76
2021/03/27 04:39:24;;;;;;;0.70;0.60;;;5.80;99.90;;;6.53;100.00;73469.88;5034028;28;20192;-76
2021/03/27 04:42:01;;;;;;;0.80;0.70;;;5.80;99.90;;;6.45;100.00;69857.97;5033551;28;20190;-76
2021/03/27 04:44:38;;;;;;;0.70;0.60;;;5.80;99.90;;;6.26;100.00;70817.41;5032558;28;20213;-75
2021/03/27 04:47:16;;;;;;;0.70;0.60;;;5.80;99.90;;;6.28;100.00;72455.88;5032667;28;20228;-75
2021/03/27 04:49:53;;;;;;;0.70;0.60;;;5.70;99.90;;;6.14;100.00;74403.22;5030950;28;20210;-76
2021/03/27 04:52:33;;;;;;;0.70;0.60;;;5.60;99.90;;;6.15;100.00;75387.25;5032145;28;20190;-76
2021/03/27 04:55:22;;;;;;;0.70;0.60;;;5.50;99.90;;;5.96;100.00;76017.16;5033202;28;20181;-75
2021/03/27 04:58:21;;;;;;;0.70;0.60;;;5.50;99.90;;;5.97;100.00;77002.06;5031799;28;20194;-75
2021/03/27 05:01:04;;;;;;;0.70;0.60;;;5.50;99.90;;;6.01;100.00;77662.94;5046553;28;20221;-76
2021/03/27 05:03:39;;;;;;;0.70;0.60;;;5.40;99.90;;;5.94;100.00;77325.69;5032304;28;20712;-76
2021/03/27 05:06:19;;;;;;;0.70;0.60;;;5.40;99.90;;;6.00;100.00;77661.56;5031333;28;20190;-75
2021/03/27 05:09:38;;;;;;;0.70;0.60;;;5.40;99.90;;;6.16;100.00;78338.44;5033136;28;20631;-75
2021/03/27 05:12:15;;;;;;;0.70;0.60;;;5.50;99.90;;;6.16;100.00;78666.34;5020768;28;20225;-74
2021/03/27 05:15:12;;;;;;;0.70;0.60;;;5.50;99.90;;;6.31;100.00;75734.81;5032730;28;20190;-76
2021/03/27 05:18:10;;;;;;;0.70;0.60;;;5.70;99.90;;;6.40;100.00;73780.66;5025235;28;20554;-76
2021/03/27 05:20:40;;;;;;;0.70;0.60;;;5.70;99.90;;;6.41;100.00;75748.78;5033335;28;20261;-75
2021/03/27 05:23:14;;;;;;;0.80;0.70;;;5.70;99.90;;;6.50;100.00;72483.91;5030971;28;20272;-76
2021/03/27 05:26:05;;;;;;;0.70;0.60;;;5.80;99.90;;;6.64;100.00;71190.97;5031735;28;20229;-75
2021/03/27 05:29:00;;;;;;;0.70;0.60;;;5.90;99.90;;;6.89;100.00;71548.66;5033001;28;20190;-76
2021/03/27 05:31:37;;;;;;;0.70;0.60;;;6.00;99.90;;;6.71;100.00;73165.38;5032872;28;20174;-76
2021/03/27 05:34:21;;;;;;;0.70;0.60;;;6.00;99.90;;;6.72;100.00;77100.72;5064883;28;20214;-76
2021/03/27 05:37:18;;;;;;;0.70;0.60;;;5.90;99.90;;;6.64;100.00;81029.31;5064536;28;20210;-75
2021/03/27 05:39:55;;;;;;;0.70;0.60;;;5.90;99.90;;;6.78;100.00;84992.59;5032054;28;20182;-76
2021/03/27 05:43:03;;;;;;;0.70;0.60;;;5.90;99.90;;;6.80;100.00;80722.78;5032824;28;20174;-76
2021/03/27 05:46:41;;;;;;;0.70;0.60;;;6.00;99.90;;;6.74;100.00;80058.22;5024422;28;20253;-75
2021/03/27 05:49:43;;;;;;;1.42;1.25;;;6.10;99.90;;;6.98;100.00;76478.81;5032946;28;20276;-76
2021/03/27 05:52:40;;;;;;;0.70;0.60;;;6.20;99.90;;;7.01;100.00;77467.50;5036211;28;20194;-77
2021/03/27 05:55:41;;;;;;;0.70;0.60;;;6.20;99.90;;;6.90;100.00;78437.34;5036087;28;20221;-75
2021/03/27 05:58:53;;;;;;;0.70;0.55;;;6.30;99.90;;;7.23;100.00;74870.63;5035730;28;20197;-76
2021/03/27 06:01:36;;;;;;;0.70;0.60;;;6.40;99.90;;;7.37;100.00;74560.16;5032193;28;20225;-76
2021/03/27 06:04:47;;;;;;;0.70;0.60;;;6.50;99.90;;;7.33;100.00;73242.53;5034451;28;20232;-74
2021/03/27 06:07:56;;;;;;;0.95;0.95;;;6.50;99.90;;;7.35;100.00;65053.84;5068180;28;20551;-75
2021/03/27 06:10:48;;;;;;;0.70;0.60;;;6.50;99.90;;;7.49;100.00;61471.16;5035317;28;20216;-75
2021/03/27 06:14:04;;;;;;;0.70;0.60;;;6.60;99.90;;;7.50;100.00;64416.47;5035948;28;20191;-75
2021/03/27 06:17:15;;;;;;;0.70;0.50;;;6.60;99.90;;;7.72;100.00;66406.47;5017980;28;20444;-75
2021/03/27 06:20:35;;;;;;;0.70;0.60;;;6.70;99.90;;;7.85;100.00;65437.72;5034843;28;20282;-75
2021/03/27 06:23:41;;;;;;;0.70;0.60;;;6.90;99.90;;;8.14;100.00;63833.00;5031625;28;20666;-75
2021/03/27 06:26:58;;;;;;;0.70;0.60;;;6.90;99.90;;;8.03;100.00;58297.97;5016650;28;20475;-73
2021/03/27 06:30:10;;;;;;;0.70;0.60;;;7.00;99.90;;;7.93;100.00;65119.34;5052487;28;20439;-75
2021/03/27 06:33:52;;;;;;;0.70;0.60;;;7.00;99.90;;;7.71;100.00;70666.50;5037159;28;20451;-74
2021/03/27 06:36:49;;;;;;;0.70;0.60;;;7.00;99.90;;;7.73;100.00;78549.38;5044548;28;20926;-76
2021/03/27 06:40:09;;;;;;;0.70;0.60;;;6.90;99.90;;;7.66;100.00;86109.28;5026153;28;20436;-75
2021/03/27 06:42:59;;;;;;;0.80;0.77;;;6.90;99.90;;;7.54;100.00;91694.34;5003082;28;20444;-75
2021/03/27 06:45:58;;;;;;;0.70;0.60;;;6.90;99.90;;;7.49;100.00;104246.22;5034562;28;20468;-74
2021/03/27 06:49:21;;;;;;;0.70;0.60;;;6.80;99.90;;;7.29;100.00;122126.84;5035046;28;20470;-74
2021/03/27 06:52:42;;;;;;;0.70;0.60;;;6.50;99.90;;;6.87;100.00;137366.09;5045964;28;20452;-73
2021/03/27 06:55:43;;;;;;;0.70;0.60;;;6.20;99.90;;;6.25;100.00;141894.75;5041805;28;20529;-72
2021/03/27 06:59:16;;;;;;;0.70;0.60;;;5.50;99.90;;;5.74;100.00;144441.09;5022650;28;20182;-73
2021/03/27 07:02:25;;;;;;;0.70;0.50;;;5.10;99.90;;;5.60;100.00;144741.22;5051678;28;20210;-73
2021/03/27 07:06:07;;;;;;;0.70;0.60;;;4.80;99.90;;;5.30;100.00;144334.88;5036940;28;20218;-73
2021/03/27 07:09:00;;;;;;;0.70;0.60;;;4.70;99.90;;;5.51;100.00;144051.06;4974786;28;20196;-73
2021/03/27 07:11:57;;;;;;;0.70;0.60;;;4.70;99.90;;;5.23;100.00;142649.56;4991211;28;20197;-74
2021/03/27 07:14:55;;;;;;;0.70;0.60;;;4.60;99.90;;;5.12;100.00;140955.66;5022589;28;20197;-73
2021/03/27 07:17:41;;;;;;;0.70;0.60;;;4.40;99.90;;;5.15;100.00;138963.81;5045654;28;20201;-74
2021/03/27 07:20:56;;;;;;;0.70;0.60;;;4.40;99.90;;;5.04;100.00;136274.09;5047133;28;20235;-74
2021/03/27 07:24:01;;;;;;;0.70;0.70;;;4.40;99.90;;;5.32;100.00;134674.75;5033875;28;20265;-73
2021/03/27 07:27:25;;;;;;;0.70;0.60;;;4.40;99.90;;;5.39;100.00;132362.09;5032750;28;20278;-75
2021/03/27 07:30:37;;;;;;;0.70;0.60;;;4.50;99.90;;;5.35;100.00;130024.50;5015258;28;20264;-74
2021/03/27 07:33:35;;;;;;;0.70;0.60;;;4.50;99.90;;;5.27;100.00;127682.13;4972273;28;20219;-74
2021/03/27 07:37:05;;;;;;;0.70;0.60;;;4.50;99.90;;;5.24;100.00;125020.91;4972734;28;20200;-72
2021/03/27 07:39:47;;;;;;;0.70;0.60;;;4.50;99.90;;;5.34;100.00;123050.75;5035844;28;20241;-74
2021/03/27 07:42:49;;;;;;;0.70;0.60;;;4.60;99.90;;;5.64;100.00;121786.47;5031983;28;20305;-74
2021/03/27 07:45:56;;;;;;;0.70;0.60;;;4.70;99.90;;;5.75;100.00;119156.25;5040888;28;20201;-73
2021/03/27 07:49:06;;;;;;;0.70;0.57;;;4.80;99.90;;;5.97;100.00;116547.31;5033789;28;20214;-74
2021/03/27 07:52:10;;;;;;;0.70;0.60;;;4.90;99.90;;;6.29;100.00;113628.81;5043430;28;20232;-74
2021/03/27 07:55:40;;;;;;;0.70;0.60;;;5.20;99.90;;;7.24;100.00;108175.38;5029550;28;20261;-73
2021/03/27 07:58:51;;;;;;;0.70;0.60;;;5.80;99.90;;;6.61;100.00;98474.13;5026606;28;20244;-74
2021/03/27 08:01:50;;;;;;;0.70;0.60;;;5.60;99.90;;;8.02;100.00;91440.09;5031636;28;20451;-73
2021/03/27 08:05:14;;;;;;;0.70;0.50;;;6.40;99.90;;;8.36;100.00;63201.41;5039940;28;20488;-73
2021/03/27 08:08:12;;;;;;;1.10;1.00;;;6.90;99.90;;;8.92;100.00;38435.00;5026676;28;20541;-74
2021/03/27 08:11:12;;;;;;;0.70;0.57;;;7.10;99.90;;;9.05;100.00;12430.09;5043468;28;20853;-74
2021/03/27 08:14:37;;;;;;;0.70;0.60;;;7.00;99.90;;;8.60;100.00;-4207.78;5042509;28;20468;-73
2021/03/27 08:17:54;;;;;;;0.70;0.53;;;7.40;99.90;;;9.52;100.00;-13395.25;5011290;28;20467;-73
2021/03/27 08:20:57;;;;;;;0.70;0.60;;;7.70;99.90;;;11.08;100.00;-20783.69;5033511;28;20441;-74
2021/03/27 08:23:59;;;;;;;0.70;0.60;;;8.20;99.90;;;10.27;100.00;-20961.59;5069692;28;20489;-72
2021/03/27 08:27:19;;;;;;;0.70;0.70;;;7.80;99.90;;;9.59;100.00;-20943.03;5052373;28;20997;-72
2021/03/27 08:30:38;;;;;;;0.70;0.60;;;7.50;99.90;;;9.73;100.00;-20946.78;5025149;28;20439;-75
2021/03/27 08:33:39;;;;;;;0.70;0.60;;;7.80;99.90;;;9.37;100.00;-20937.09;5046378;28;20466;-73
2021/03/27 08:36:51;;;;;;;0.70;0.60;;;7.60;99.90;;;9.60;100.00;-20943.31;5038532;28;20456;-74
2021/03/27 08:40:24;;;;;;;0.70;0.60;;;7.90;99.90;;;10.72;100.00;-20973.63;5037581;28;20448;-74
2021/03/27 08:43:45;;;;;;;0.70;0.60;;;8.30;99.90;;;10.41;100.00;-20965.34;5004639;28;20459;-75
2021/03/27 08:46:52;;;;;;;0.70;0.60;;;8.50;99.90;;;11.22;100.00;-20987.31;5001720;28;20465;-74
2021/03/27 08:50:22;;;;;;;0.80;0.60;;;8.70;99.90;;;10.69;100.00;-20972.81;5043186;28;20451;-75
2021/03/27 08:53:33;;;;;;;0.70;0.60;;;8.60;99.90;;;10.34;100.00;-19799.88;5037504;28;20472;-75
2021/03/27 08:57:13;;;;;;;0.70;0.50;;;8.50;99.90;;;10.68;100.00;-15729.00;4989615;28;20445;-75
2021/03/27 09:00:15;;;;;;;0.70;0.60;;;8.60;99.90;;;10.54;100.00;-14863.56;4936630;29;20459;-75
2021/03/27 09:03:41;;;;;;;0.80;0.70;;;8.20;99.90;;;9.95;100.00;-7370.19;4941180;29;20444;-74
2021/03/27 09:06:30;;;;;;;0.70;0.60;;;8.10;99.90;;;10.15;100.00;12262.09;4982024;28;20473;-73
2021/03/27 09:09:26;;;;;;;0.70;0.60;;;8.80;99.90;;;10.55;100.00;19739.09;5061484;28;20475;-74
2021/03/27 09:12:20;;;;;;;0.70;0.50;;;8.90;99.90;;;10.49;100.00;20023.25;5023844;28;20444;-74
2021/03/27 09:15:42;;;;;;;0.70;0.60;;;8.70;99.90;;;10.25;100.00;27303.59;5017531;28;20438;-74
2021/03/27 09:18:45;;;;;;;0.70;0.60;;;8.60;99.90;;;10.62;100.00;39998.72;5031422;28;20467;-74
2021/03/27 09:21:29;;;;;;;0.70;0.60;;;8.80;99.90;;;11.05;100.00;30794.59;5066420;28;20469;-73
2021/03/27 09:24:31;;;;;;;0.70;0.70;;;8.80;99.90;;;11.68;100.00;15611.59;5025261;28;20444;-72
2021/03/27 09:27:39;;;;;;;0.70;0.60;;;9.20;99.90;;;13.49;100.00;-7072.97;5039693;28;20808;-75
2021/03/27 09:30:23;;;;;;;0.70;0.60;;;10.20;99.90;;;13.31;100.00;-21043.66;5047600;28;21006;-74
2021/03/27 09:32:58;;;;;;;0.80;0.70;;;10.30;99.90;;;12.97;100.00;-21034.53;5013365;28;20424;-74
2021/03/27 09:36:05;;;;;;;0.70;0.60;;;10.10;99.90;;;12.81;100.00;-21030.28;5022169;28;20804;-73
2021/03/27 09:38:45;;;;;;;0.70;0.67;;;9.80;99.90;;;11.34;100.00;-20990.50;5032784;28;20502;-75
2021/03/27 09:42:06;;;;;;;0.70;0.60;;;9.40;99.90;;;11.34;100.00;-20990.50;5064450;28;20424;-75
2021/03/27 09:45:09;;;;;;;0.70;0.60;;;9.20;99.90;;;10.90;100.00;-20978.63;5029089;28;20437;-74
2021/03/27 09:48:34;;;;;;;0.80;0.60;;;9.00;99.90;;;10.80;100.00;-20975.84;5033512;28;20445;-75
2021/03/27 09:51:19;;;;;;;0.70;0.60;;;9.20;99.90;;;11.50;100.00;-20994.78;5069631;28;20486;-75
2021/03/27 09:54:02;;;;;;;0.70;0.60;;;9.40;99.90;;;13.44;100.00;-21047.22;5046206;28;20437;-75
2021/03/27 09:56:37;;;;;;;0.80;0.70;;;10.50;98.40;;;14.16;100.00;-21066.78;5050340;28;20415;-74
2021/03/27 09:59:29;;;;;;;0.70;0.60;;;10.90;93.20;;;15.07;100.00;-21091.31;5032436;28;20423;-75
2021/03/27 10:02:13;;;;;;;1.27;1.17;;;11.20;94.70;;;14.70;100.00;-21081.25;5032435;28;20462;-75
2021/03/27 10:05:03;;;;;;;0.80;0.67;;;11.10;89.60;;;13.64;100.00;-21052.63;5029829;28;20477;-74
2021/03/27 10:07:51;;;;;;;0.70;0.60;;;10.70;91.30;;;13.26;100.00;-21042.41;5062125;28;20820;-75
2021/03/27 10:11:00;;;;;;;0.70;0.60;;;10.50;91.70;;;13.28;100.00;-21043.09;5029583;28;20432;-73
2021/03/27 10:13:59;;;;;;;1.83;1.47;;;10.90;85.80;;;13.70;100.00;-21054.25;5029982;28;20984;-75
2021/03/27 10:16:38;;;;;;;0.87;0.77;;;10.70;82.80;;;12.74;100.00;-21028.34;5028947;28;20435;-75
2021/03/27 10:19:27;;;;;;;0.70;0.60;;;10.60;85.60;;;11.93;100.00;-21006.53;5031747;28;20547;-76
2021/03/27 10:22:21;;;;;;;0.70;0.60;;;10.10;85.50;;;11.65;100.00;-20998.78;5031345;28;20827;-75
2021/03/27 10:25:17;;;;;;;0.70;0.60;;;10.00;88.30;;;12.76;100.00;-21029.03;5060775;28;20475;-74
2021/03/27 10:28:14;;;;;;;1.57;1.40;;;11.00;85.50;;;13.16;100.00;-21039.66;5049170;28;20505;-76
2021/03/27 10:30:55;;;;;;;0.70;0.60;;;11.10;85.50;;;12.93;100.00;-21033.59;5032132;28;20462;-74
2021/03/27 10:33:37;;;;;;;0.80;0.70;;;10.80;84.40;;;12.82;100.00;-21030.53;5034202;28;20962;-75
2021/03/27 10:36:29;;;;;;;0.73;0.60;;;10.40;88.60;;;13.20;100.00;-21040.75;5058118;28;20451;-74
2021/03/27 10:39:19;;;;;;;0.70;0.60;;;11.00;85.70;;;13.23;100.00;-21041.72;5016443;28;20419;-74
2021/03/27 10:42:31;;;;;;;0.70;0.60;;;10.80;83.20;;;14.75;100.00;-21082.63;5033964;28;20512;-75
2021/03/27 10:45:24;;;;;;;0.70;0.60;;;12.00;82.80;;;14.78;100.00;-21083.47;5016185;28;20479;-75
2021/03/27 10:48:48;;;;;;;0.70;0.60;;;12.10;80.40;;;14.82;100.00;-21084.56;5048117;28;20447;-74
2021/03/27 10:52:06;;;;;;;0.80;0.63;;;12.80;79.60;;;15.84;100.00;-21112.06;5012216;28;20450;-75
2021/03/27 10:55:23;;;;;;;0.80;0.60;;;12.40;84.60;;;13.31;100.00;-21043.78;5044098;28;20858;-75
2021/03/27 10:58:51;;;;;;;0.70;0.60;;;11.70;79.90;;;13.03;100.00;-21036.34;5035373;28;20454;-76
2021/03/27 11:02:15;;;;;;;0.70;0.60;;;11.30;84.40;;;12.46;100.00;-21020.88;5012013;28;20837;-76
2021/03/27 11:05:26;;;;;;;0.70;0.60;;;11.00;84.60;;;12.25;100.00;-21015.22;5045853;28;20478;-73
2021/03/27 11:09:08;;;;;;;0.70;0.60;;;10.90;78.80;;;13.67;100.00;-21053.44;5026023;28;20444;-74
2021/03/27 11:12:17;;;;;;;0.80;0.60;;;11.70;78.20;;;14.25;100.00;-21069.16;5000136;28;20986;-72
2021/03/27 11:15:40;;;;;;;0.80;0.70;;;11.70;75.30;;;12.91;100.00;-21032.88;5026181;28;20541;-73
2021/03/27 11:18:50;;;;;;;0.77;0.67;;;10.90;70.90;;;12.15;100.00;-21012.31;5034167;28;20460;-73
2021/03/27 11:21:50;;;;;;;0.70;0.60;;;10.70;74.10;;;12.62;100.00;-21025.16;5035567;28;20440;-74
2021/03/27 11:24:40;;;;;;;0.70;0.60;;;11.00;72.80;;;13.62;100.00;-21052.19;5032313;28;20445;-75
2021/03/27 11:27:48;;;;;;;0.70;0.60;;;11.60;69.90;;;13.49;100.00;-21048.75;5031200;28;20939;-74
2021/03/27 11:30:24;;;;;;;0.80;0.70;;;11.70;66.30;;;14.44;100.00;-21074.38;5035364;28;20426;-73
2021/03/27 11:32:57;;;;;;;0.70;0.60;;;11.70;64.80;;;14.07;100.00;-21064.19;5034544;28;20460;-74
2021/03/27 11:35:31;;;;;;;0.70;0.63;;;12.00;62.80;;;13.03;100.00;-21036.34;5035597;28;20421;-75
2021/03/27 11:38:18;;;;;;;0.70;0.60;;;11.00;65.00;;;13.29;100.00;-21043.25;5034475;28;20874;-72
2021/03/27 11:41:00;;;;;;;0.70;0.60;;;11.10;68.70;;;13.86;100.00;-21058.66;5049719;28;20491;-74
2021/03/27 11:43:50;;;;;;;0.70;0.60;;;11.70;63.90;;;14.26;100.00;-21069.41;5032969;28;20458;-74
2021/03/27 11:46:27;;;;;;;0.70;0.60;;;11.90;58.80;;;13.60;100.00;-21051.66;5034521;28;20458;-74
2021/03/27 11:49:04;;;;;;;0.70;0.63;;;12.00;55.10;;;13.42;100.00;-21046.69;5035145;28;20466;-74
2021/03/27 11:51:40;;;;;;;0.70;0.60;;;11.50;56.20;;;13.23;100.00;-21041.56;5032350;28;21777;-74
2021/03/27 11:54:27;;;;;;;0.70;0.60;;;11.60;54.80;;;13.89;100.00;-21059.38;5019999;28;20773;-75
2021/03/27 11:57:32;;;;;;;0.70;0.70;;;12.00;54.40;;;12.53;100.00;-21022.81;5034859;28;20983;-75
2021/03/27 12:00:47;;;;;;;0.70;0.60;;;10.80;57.50;;;13.34;100.00;-21044.63;5021546;28;20437;-75
2021/03/27 12:03:37;;;;;;;0.70;0.60;;;11.90;63.30;;;13.24;100.00;-21041.84;4997723;28;20454;-74
2021/03/27 12:06:21;;;;;;;0.80;0.70;;;11.40;64.90;;;13.61;100.00;-21051.78;5022707;28;20467;-75
2021/03/27 12:09:18;;;;;;;0.70;0.67;;;12.10;59.60;;;13.23;100.00;-21041.56;5034297;28;20785;-75